sensor_id;sensor_type;location;lat;lon;timestamp;P1;durP1;ratioP1;P2;durP2;ratioP2
7899;SDS011;3995;50.856;4.404;2022-11-15T00:00:13;11.90;;;9.57;;
7899;SDS011;3995;50.856;4.404;2022-11-15T00:02:41;11.47;;;10.37;;
7899;SDS011;3995;50.856;4.404;2022-11-15T00:05:07;12.43;;;10.53;;
7899;SDS011;3995;50.856;4.404;2022-11-15T00:07:36;12.83;;;10.47;;
7899;SDS011;3995;50.856;4.404;2022-11-15T00:10:04;11.90;;;10.70;;
7899;SDS011;3995;50.856;4.404;2022-11-15T00:12:31;13.67;;;10.27;;
7899;SDS011;3995;50.856;4.404;2022-11-15T00:14:59;15.43;;;10.13;;
7899;SDS011;3995;50.856;4.404;2022-11-15T00:17:25;11.87;;;10.37;;
7899;SDS011;3995;50.856;4.404;2022-11-15T00:19:53;11.47;;;10.27;;
7899;SDS011;3995;50.856;4.404;2022-11-15T00:22:20;14.97;;;11.40;;
7899;SDS011;3995;50.856;4.404;2022-11-15T00:24:49;14.20;;;11.20;;
7899;SDS011;3995;50.856;4.404;2022-11-15T00:27:15;18.03;;;11.17;;
7899;SDS011;3995;50.856;4.404;2022-11-15T00:29:43;15.00;;;10.33;;
7899;SDS011;3995;50.856;4.404;2022-11-15T00:32:10;12.13;;;10.80;;
7899;SDS011;3995;50.856;4.404;2022-11-15T00:34:37;12.23;;;10.93;;
7899;SDS011;3995;50.856;4.404;2022-11-15T00:37:04;17.20;;;10.97;;
7899;SDS011;3995;50.856;4.404;2022-11-15T00:39:33;13.60;;;11.73;;
7899;SDS011;3995;50.856;4.404;2022-11-15T00:42:02;13.90;;;11.13;;
7899;SDS011;3995;50.856;4.404;2022-11-15T00:44:29;16.40;;;11.40;;
7899;SDS011;3995;50.856;4.404;2022-11-15T00:46:56;13.70;;;11.73;;
7899;SDS011;3995;50.856;4.404;2022-11-15T00:49:24;13.60;;;10.57;;
7899;SDS011;3995;50.856;4.404;2022-11-15T00:51:51;12.30;;;11.00;;
7899;SDS011;3995;50.856;4.404;2022-11-15T00:54:18;13.80;;;10.50;;
7899;SDS011;3995;50.856;4.404;2022-11-15T00:56:45;13.17;;;11.63;;
7899;SDS011;3995;50.856;4.404;2022-11-15T00:59:14;16.10;;;12.97;;
7899;SDS011;3995;50.856;4.404;2022-11-15T01:01:41;13.93;;;11.03;;
7899;SDS011;3995;50.856;4.404;2022-11-15T01:04:08;14.90;;;12.00;;
7899;SDS011;3995;50.856;4.404;2022-11-15T01:06:36;20.83;;;13.93;;
7899;SDS011;3995;50.856;4.404;2022-11-15T01:09:03;13.60;;;12.07;;
7899;SDS011;3995;50.856;4.404;2022-11-15T01:11:30;17.30;;;12.83;;
7899;SDS011;3995;50.856;4.404;2022-11-15T01:13:57;16.87;;;14.00;;
7899;SDS011;3995;50.856;4.404;2022-11-15T01:16:26;18.63;;;13.70;;
7899;SDS011;3995;50.856;4.404;2022-11-15T01:18:53;16.30;;;13.87;;
7899;SDS011;3995;50.856;4.404;2022-11-15T01:21:21;17.63;;;13.20;;
7899;SDS011;3995;50.856;4.404;2022-11-15T01:23:48;19.60;;;13.10;;
7899;SDS011;3995;50.856;4.404;2022-11-15T01:26:18;19.03;;;14.00;;
7899;SDS011;3995;50.856;4.404;2022-11-15T01:28:45;15.57;;;12.77;;
7899;SDS011;3995;50.856;4.404;2022-11-15T01:31:14;16.40;;;12.70;;
7899;SDS011;3995;50.856;4.404;2022-11-15T01:33:45;14.70;;;13.23;;
7899;SDS011;3995;50.856;4.404;2022-11-15T01:36:13;14.90;;;12.83;;
7899;SDS011;3995;50.856;4.404;2022-11-15T01:38:41;14.77;;;11.80;;
7899;SDS011;3995;50.856;4.404;2022-11-15T01:41:13;16.40;;;13.57;;
7899;SDS011;3995;50.856;4.404;2022-11-15T01:43:42;16.00;;;11.20;;
7899;SDS011;3995;50.856;4.404;2022-11-15T01:46:14;12.90;;;11.27;;
7899;SDS011;3995;50.856;4.404;2022-11-15T01:48:51;15.20;;;10.43;;
7899;SDS011;3995;50.856;4.404;2022-11-15T01:51:20;12.47;;;10.93;;
7899;SDS011;3995;50.856;4.404;2022-11-15T01:53:52;14.87;;;10.70;;
7899;SDS011;3995;50.856;4.404;2022-11-15T01:56:24;11.30;;;9.63;;
7899;SDS011;3995;50.856;4.404;2022-11-15T01:58:55;10.80;;;9.70;;
7899;SDS011;3995;50.856;4.404;2022-11-15T02:01:24;10.83;;;9.17;;
7899;SDS011;3995;50.856;4.404;2022-11-15T02:03:56;12.03;;;9.47;;
7899;SDS011;3995;50.856;4.404;2022-11-15T02:06:26;12.67;;;9.63;;
7899;SDS011;3995;50.856;4.404;2022-11-15T02:08:53;16.00;;;10.03;;
7899;SDS011;3995;50.856;4.404;2022-11-15T02:11:22;12.70;;;9.60;;
7899;SDS011;3995;50.856;4.404;2022-11-15T02:13:50;13.83;;;9.80;;
7899;SDS011;3995;50.856;4.404;2022-11-15T02:16:22;10.80;;;9.37;;
7899;SDS011;3995;50.856;4.404;2022-11-15T02:19:02;10.53;;;8.67;;
7899;SDS011;3995;50.856;4.404;2022-11-15T02:21:42;12.07;;;9.33;;
7899;SDS011;3995;50.856;4.404;2022-11-15T02:24:22;10.43;;;9.33;;
7899;SDS011;3995;50.856;4.404;2022-11-15T02:27:21;11.87;;;9.23;;
7899;SDS011;3995;50.856;4.404;2022-11-15T02:30:22;10.03;;;9.03;;
7899;SDS011;3995;50.856;4.404;2022-11-15T02:32:52;14.40;;;9.67;;
7899;SDS011;3995;50.856;4.404;2022-11-15T02:35:28;11.13;;;9.33;;
7899;SDS011;3995;50.856;4.404;2022-11-15T02:38:03;12.53;;;9.80;;
7899;SDS011;3995;50.856;4.404;2022-11-15T02:40:38;13.27;;;10.20;;
7899;SDS011;3995;50.856;4.404;2022-11-15T02:43:12;12.20;;;9.13;;
7899;SDS011;3995;50.856;4.404;2022-11-15T02:46:03;15.20;;;9.20;;
7899;SDS011;3995;50.856;4.404;2022-11-15T02:48:36;12.93;;;9.60;;
7899;SDS011;3995;50.856;4.404;2022-11-15T02:51:04;9.50;;;7.53;;
7899;SDS011;3995;50.856;4.404;2022-11-15T02:53:32;10.90;;;9.27;;
7899;SDS011;3995;50.856;4.404;2022-11-15T02:55:59;12.90;;;9.40;;
7899;SDS011;3995;50.856;4.404;2022-11-15T02:58:31;12.60;;;9.07;;
7899;SDS011;3995;50.856;4.404;2022-11-15T03:01:22;10.03;;;8.47;;
7899;SDS011;3995;50.856;4.404;2022-11-15T03:04:02;11.23;;;8.23;;
7899;SDS011;3995;50.856;4.404;2022-11-15T03:06:44;10.70;;;8.20;;
7899;SDS011;3995;50.856;4.404;2022-11-15T03:09:19;11.10;;;7.50;;
7899;SDS011;3995;50.856;4.404;2022-11-15T03:11:55;12.20;;;7.77;;
7899;SDS011;3995;50.856;4.404;2022-11-15T03:14:27;8.80;;;7.27;;
7899;SDS011;3995;50.856;4.404;2022-11-15T03:17:02;8.50;;;7.07;;
7899;SDS011;3995;50.856;4.404;2022-11-15T03:19:37;9.17;;;7.40;;
7899;SDS011;3995;50.856;4.404;2022-11-15T03:22:11;7.70;;;6.80;;
7899;SDS011;3995;50.856;4.404;2022-11-15T03:24:41;10.10;;;6.63;;
7899;SDS011;3995;50.856;4.404;2022-11-15T03:27:11;11.30;;;7.73;;
7899;SDS011;3995;50.856;4.404;2022-11-15T03:29:42;9.97;;;6.87;;
7899;SDS011;3995;50.856;4.404;2022-11-15T03:32:15;7.37;;;6.40;;
7899;SDS011;3995;50.856;4.404;2022-11-15T03:34:46;11.00;;;7.53;;
7899;SDS011;3995;50.856;4.404;2022-11-15T03:37:17;8.10;;;6.53;;
7899;SDS011;3995;50.856;4.404;2022-11-15T03:39:50;7.70;;;5.50;;
7899;SDS011;3995;50.856;4.404;2022-11-15T03:42:20;8.33;;;5.80;;
7899;SDS011;3995;50.856;4.404;2022-11-15T03:44:51;7.37;;;5.70;;
7899;SDS011;3995;50.856;4.404;2022-11-15T03:47:26;9.77;;;6.07;;
7899;SDS011;3995;50.856;4.404;2022-11-15T03:49:57;8.67;;;5.17;;
7899;SDS011;3995;50.856;4.404;2022-11-15T03:52:29;6.83;;;5.10;;
7899;SDS011;3995;50.856;4.404;2022-11-15T03:55:00;9.70;;;5.67;;
7899;SDS011;3995;50.856;4.404;2022-11-15T03:57:28;8.60;;;5.60;;
7899;SDS011;3995;50.856;4.404;2022-11-15T03:59:56;9.30;;;5.87;;
7899;SDS011;3995;50.856;4.404;2022-11-15T04:02:23;5.87;;;4.53;;
7899;SDS011;3995;50.856;4.404;2022-11-15T04:04:52;6.80;;;5.33;;
7899;SDS011;3995;50.856;4.404;2022-11-15T04:07:19;5.77;;;4.73;;
7899;SDS011;3995;50.856;4.404;2022-11-15T04:09:46;10.63;;;5.57;;
7899;SDS011;3995;50.856;4.404;2022-11-15T04:12:28;8.90;;;5.07;;
7899;SDS011;3995;50.856;4.404;2022-11-15T04:14:59;8.50;;;4.90;;
7899;SDS011;3995;50.856;4.404;2022-11-15T04:17:33;6.27;;;4.70;;
7899;SDS011;3995;50.856;4.404;2022-11-15T04:20:03;6.13;;;4.73;;
7899;SDS011;3995;50.856;4.404;2022-11-15T04:22:48;8.37;;;4.47;;
7899;SDS011;3995;50.856;4.404;2022-11-15T04:25:35;7.83;;;4.20;;
7899;SDS011;3995;50.856;4.404;2022-11-15T04:28:02;9.10;;;4.20;;
7899;SDS011;3995;50.856;4.404;2022-11-15T04:30:29;11.53;;;4.20;;
7899;SDS011;3995;50.856;4.404;2022-11-15T04:32:56;5.53;;;4.57;;
7899;SDS011;3995;50.856;4.404;2022-11-15T04:35:25;6.67;;;4.90;;
7899;SDS011;3995;50.856;4.404;2022-11-15T04:37:52;7.30;;;4.67;;
7899;SDS011;3995;50.856;4.404;2022-11-15T04:40:18;8.47;;;4.50;;
7899;SDS011;3995;50.856;4.404;2022-11-15T04:42:46;9.07;;;4.87;;
7899;SDS011;3995;50.856;4.404;2022-11-15T04:45:13;4.60;;;3.67;;
7899;SDS011;3995;50.856;4.404;2022-11-15T04:47:42;7.37;;;4.20;;
7899;SDS011;3995;50.856;4.404;2022-11-15T04:50:09;5.60;;;4.40;;
7899;SDS011;3995;50.856;4.404;2022-11-15T04:52:39;8.30;;;4.33;;
7899;SDS011;3995;50.856;4.404;2022-11-15T04:55:07;5.40;;;3.97;;
7899;SDS011;3995;50.856;4.404;2022-11-15T04:57:34;6.33;;;3.77;;
7899;SDS011;3995;50.856;4.404;2022-11-15T05:00:02;6.50;;;3.60;;
7899;SDS011;3995;50.856;4.404;2022-11-15T05:02:30;5.33;;;4.13;;
7899;SDS011;3995;50.856;4.404;2022-11-15T05:05:11;4.00;;;3.50;;
7899;SDS011;3995;50.856;4.404;2022-11-15T05:07:40;7.70;;;4.43;;
7899;SDS011;3995;50.856;4.404;2022-11-15T05:10:07;8.83;;;3.80;;
7899;SDS011;3995;50.856;4.404;2022-11-15T05:12:35;5.03;;;3.80;;
7899;SDS011;3995;50.856;4.404;2022-11-15T05:15:03;5.90;;;3.83;;
7899;SDS011;3995;50.856;4.404;2022-11-15T05:17:31;8.83;;;3.60;;
7899;SDS011;3995;50.856;4.404;2022-11-15T05:19:58;8.53;;;3.60;;
7899;SDS011;3995;50.856;4.404;2022-11-15T05:22:25;11.17;;;4.33;;
7899;SDS011;3995;50.856;4.404;2022-11-15T05:24:55;6.67;;;3.97;;
7899;SDS011;3995;50.856;4.404;2022-11-15T05:27:21;9.00;;;3.80;;
7899;SDS011;3995;50.856;4.404;2022-11-15T05:29:49;10.50;;;3.20;;
7899;SDS011;3995;50.856;4.404;2022-11-15T05:32:16;6.93;;;3.57;;
7899;SDS011;3995;50.856;4.404;2022-11-15T05:34:44;7.90;;;3.80;;
7899;SDS011;3995;50.856;4.404;2022-11-15T05:37:12;4.53;;;3.03;;
7899;SDS011;3995;50.856;4.404;2022-11-15T05:39:39;8.97;;;3.27;;
7899;SDS011;3995;50.856;4.404;2022-11-15T05:42:08;9.20;;;3.80;;
7899;SDS011;3995;50.856;4.404;2022-11-15T05:44:37;7.87;;;3.23;;
7899;SDS011;3995;50.856;4.404;2022-11-15T05:47:07;7.07;;;3.13;;
7899;SDS011;3995;50.856;4.404;2022-11-15T05:49:38;5.67;;;3.17;;
7899;SDS011;3995;50.856;4.404;2022-11-15T05:52:09;5.33;;;3.13;;
7899;SDS011;3995;50.856;4.404;2022-11-15T05:54:39;8.57;;;3.10;;
7899;SDS011;3995;50.856;4.404;2022-11-15T05:57:08;9.23;;;3.60;;
7899;SDS011;3995;50.856;4.404;2022-11-15T05:59:35;4.70;;;3.17;;
7899;SDS011;3995;50.856;4.404;2022-11-15T06:02:03;6.57;;;3.87;;
7899;SDS011;3995;50.856;4.404;2022-11-15T06:04:30;9.50;;;3.40;;
7899;SDS011;3995;50.856;4.404;2022-11-15T06:06:57;8.83;;;2.90;;
7899;SDS011;3995;50.856;4.404;2022-11-15T06:09:25;7.00;;;2.50;;
7899;SDS011;3995;50.856;4.404;2022-11-15T06:11:52;5.07;;;2.83;;
7899;SDS011;3995;50.856;4.404;2022-11-15T06:14:21;7.53;;;3.07;;
7899;SDS011;3995;50.856;4.404;2022-11-15T06:16:48;4.00;;;2.80;;
7899;SDS011;3995;50.856;4.404;2022-11-15T06:19:15;7.47;;;3.43;;
7899;SDS011;3995;50.856;4.404;2022-11-15T06:21:42;4.30;;;3.00;;
7899;SDS011;3995;50.856;4.404;2022-11-15T06:24:10;6.47;;;2.90;;
7899;SDS011;3995;50.856;4.404;2022-11-15T06:26:37;4.17;;;2.67;;
7899;SDS011;3995;50.856;4.404;2022-11-15T06:29:04;7.00;;;2.90;;
7899;SDS011;3995;50.856;4.404;2022-11-15T06:31:32;8.27;;;3.03;;
7899;SDS011;3995;50.856;4.404;2022-11-15T06:33:59;9.67;;;3.17;;
7899;SDS011;3995;50.856;4.404;2022-11-15T06:36:26;10.43;;;3.33;;
7899;SDS011;3995;50.856;4.404;2022-11-15T06:38:54;9.07;;;2.90;;
7899;SDS011;3995;50.856;4.404;2022-11-15T06:41:21;7.93;;;3.10;;
7899;SDS011;3995;50.856;4.404;2022-11-15T06:43:48;7.07;;;3.90;;
7899;SDS011;3995;50.856;4.404;2022-11-15T06:46:15;5.67;;;2.73;;
7899;SDS011;3995;50.856;4.404;2022-11-15T06:48:44;6.53;;;3.30;;
7899;SDS011;3995;50.856;4.404;2022-11-15T06:51:11;7.70;;;3.17;;
7899;SDS011;3995;50.856;4.404;2022-11-15T06:53:39;7.73;;;3.23;;
7899;SDS011;3995;50.856;4.404;2022-11-15T06:56:06;11.33;;;3.40;;
7899;SDS011;3995;50.856;4.404;2022-11-15T06:58:34;10.33;;;3.37;;
7899;SDS011;3995;50.856;4.404;2022-11-15T07:01:03;5.30;;;3.20;;
7899;SDS011;3995;50.856;4.404;2022-11-15T07:03:31;9.63;;;3.40;;
7899;SDS011;3995;50.856;4.404;2022-11-15T07:06:02;13.80;;;3.37;;
7899;SDS011;3995;50.856;4.404;2022-11-15T07:08:30;9.83;;;3.00;;
7899;SDS011;3995;50.856;4.404;2022-11-15T07:10:57;11.10;;;3.27;;
7899;SDS011;3995;50.856;4.404;2022-11-15T07:13:25;9.57;;;3.07;;
7899;SDS011;3995;50.856;4.404;2022-11-15T07:15:53;9.87;;;3.37;;
7899;SDS011;3995;50.856;4.404;2022-11-15T07:18:21;14.93;;;3.20;;
7899;SDS011;3995;50.856;4.404;2022-11-15T07:20:48;8.00;;;3.40;;
7899;SDS011;3995;50.856;4.404;2022-11-15T07:23:17;13.63;;;3.47;;
7899;SDS011;3995;50.856;4.404;2022-11-15T07:25:43;10.20;;;3.30;;
7899;SDS011;3995;50.856;4.404;2022-11-15T07:28:11;9.83;;;3.50;;
7899;SDS011;3995;50.856;4.404;2022-11-15T07:30:38;15.37;;;3.73;;
7899;SDS011;3995;50.856;4.404;2022-11-15T07:33:05;7.73;;;3.47;;
7899;SDS011;3995;50.856;4.404;2022-11-15T07:35:32;19.20;;;5.53;;
7899;SDS011;3995;50.856;4.404;2022-11-15T07:38:00;15.43;;;4.03;;
7899;SDS011;3995;50.856;4.404;2022-11-15T07:40:30;10.37;;;3.17;;
7899;SDS011;3995;50.856;4.404;2022-11-15T07:42:59;7.10;;;3.20;;
7899;SDS011;3995;50.856;4.404;2022-11-15T07:45:27;10.80;;;3.97;;
7899;SDS011;3995;50.856;4.404;2022-11-15T07:47:55;9.43;;;3.13;;
7899;SDS011;3995;50.856;4.404;2022-11-15T07:50:23;8.83;;;3.10;;
7899;SDS011;3995;50.856;4.404;2022-11-15T07:52:53;6.67;;;2.70;;
7899;SDS011;3995;50.856;4.404;2022-11-15T07:55:21;5.47;;;3.00;;
7899;SDS011;3995;50.856;4.404;2022-11-15T07:57:50;7.77;;;2.63;;
7899;SDS011;3995;50.856;4.404;2022-11-15T08:00:17;5.67;;;2.73;;
7899;SDS011;3995;50.856;4.404;2022-11-15T08:02:44;8.30;;;3.33;;
7899;SDS011;3995;50.856;4.404;2022-11-15T08:05:12;4.00;;;2.40;;
7899;SDS011;3995;50.856;4.404;2022-11-15T08:07:39;12.23;;;3.33;;
7899;SDS011;3995;50.856;4.404;2022-11-15T08:10:07;6.70;;;2.80;;
7899;SDS011;3995;50.856;4.404;2022-11-15T08:12:37;6.60;;;2.67;;
7899;SDS011;3995;50.856;4.404;2022-11-15T08:15:07;6.13;;;2.63;;
7899;SDS011;3995;50.856;4.404;2022-11-15T08:17:35;10.90;;;6.83;;
7899;SDS011;3995;50.856;4.404;2022-11-15T08:20:02;10.80;;;5.33;;
7899;SDS011;3995;50.856;4.404;2022-11-15T08:22:30;9.20;;;3.90;;
7899;SDS011;3995;50.856;4.404;2022-11-15T08:24:57;7.27;;;3.10;;
7899;SDS011;3995;50.856;4.404;2022-11-15T08:27:24;6.80;;;2.63;;
7899;SDS011;3995;50.856;4.404;2022-11-15T08:29:52;6.90;;;3.30;;
7899;SDS011;3995;50.856;4.404;2022-11-15T08:32:21;9.10;;;3.30;;
7899;SDS011;3995;50.856;4.404;2022-11-15T08:34:49;12.73;;;4.17;;
7899;SDS011;3995;50.856;4.404;2022-11-15T08:37:16;5.87;;;2.30;;
7899;SDS011;3995;50.856;4.404;2022-11-15T08:39:43;6.97;;;2.60;;
7899;SDS011;3995;50.856;4.404;2022-11-15T08:42:10;4.37;;;2.30;;
7899;SDS011;3995;50.856;4.404;2022-11-15T08:44:38;4.23;;;2.00;;
7899;SDS011;3995;50.856;4.404;2022-11-15T08:47:05;4.87;;;2.43;;
7899;SDS011;3995;50.856;4.404;2022-11-15T08:49:35;7.80;;;3.00;;
7899;SDS011;3995;50.856;4.404;2022-11-15T08:52:03;7.50;;;3.47;;
7899;SDS011;3995;50.856;4.404;2022-11-15T08:54:30;4.43;;;2.20;;
7899;SDS011;3995;50.856;4.404;2022-11-15T08:56:57;5.77;;;2.83;;
7899;SDS011;3995;50.856;4.404;2022-11-15T08:59:24;9.53;;;2.77;;
7899;SDS011;3995;50.856;4.404;2022-11-15T09:01:51;7.70;;;2.80;;
7899;SDS011;3995;50.856;4.404;2022-11-15T09:04:18;12.10;;;3.07;;
7899;SDS011;3995;50.856;4.404;2022-11-15T09:06:48;14.30;;;3.13;;
7899;SDS011;3995;50.856;4.404;2022-11-15T09:09:16;13.00;;;3.70;;
7899;SDS011;3995;50.856;4.404;2022-11-15T09:11:43;9.33;;;3.53;;
7899;SDS011;3995;50.856;4.404;2022-11-15T09:14:10;8.27;;;2.60;;
7899;SDS011;3995;50.856;4.404;2022-11-15T09:16:38;13.47;;;3.33;;
7899;SDS011;3995;50.856;4.404;2022-11-15T09:19:05;12.33;;;3.73;;
7899;SDS011;3995;50.856;4.404;2022-11-15T09:21:33;24.23;;;4.07;;
7899;SDS011;3995;50.856;4.404;2022-11-15T09:24:02;7.90;;;3.07;;
7899;SDS011;3995;50.856;4.404;2022-11-15T09:26:30;6.83;;;2.13;;
7899;SDS011;3995;50.856;4.404;2022-11-15T09:28:56;8.53;;;2.10;;
7899;SDS011;3995;50.856;4.404;2022-11-15T09:31:24;7.30;;;2.20;;
7899;SDS011;3995;50.856;4.404;2022-11-15T09:33:51;7.07;;;2.57;;
7899;SDS011;3995;50.856;4.404;2022-11-15T09:36:19;13.87;;;2.50;;
7899;SDS011;3995;50.856;4.404;2022-11-15T09:38:46;9.33;;;2.57;;
7899;SDS011;3995;50.856;4.404;2022-11-15T09:44:22;10.03;;;2.20;;
7899;SDS011;3995;50.856;4.404;2022-11-15T09:47:10;7.07;;;2.00;;
7899;SDS011;3995;50.856;4.404;2022-11-15T09:50:08;8.40;;;2.80;;
7899;SDS011;3995;50.856;4.404;2022-11-15T09:52:37;12.30;;;4.33;;
7899;SDS011;3995;50.856;4.404;2022-11-15T09:55:09;11.60;;;2.70;;
7899;SDS011;3995;50.856;4.404;2022-11-15T09:57:41;7.37;;;2.13;;
7899;SDS011;3995;50.856;4.404;2022-11-15T10:00:16;5.17;;;2.23;;
7899;SDS011;3995;50.856;4.404;2022-11-15T10:02:56;13.00;;;2.93;;
7899;SDS011;3995;50.856;4.404;2022-11-15T10:05:31;4.93;;;2.00;;
7899;SDS011;3995;50.856;4.404;2022-11-15T10:08:03;8.13;;;3.50;;
7899;SDS011;3995;50.856;4.404;2022-11-15T10:10:40;10.53;;;2.23;;
7899;SDS011;3995;50.856;4.404;2022-11-15T10:13:12;10.57;;;2.40;;
7899;SDS011;3995;50.856;4.404;2022-11-15T10:15:50;8.67;;;2.17;;
7899;SDS011;3995;50.856;4.404;2022-11-15T10:18:20;7.70;;;2.03;;
7899;SDS011;3995;50.856;4.404;2022-11-15T10:20:56;7.10;;;2.10;;
7899;SDS011;3995;50.856;4.404;2022-11-15T10:23:26;10.23;;;2.30;;
7899;SDS011;3995;50.856;4.404;2022-11-15T10:25:54;13.57;;;2.80;;
7899;SDS011;3995;50.856;4.404;2022-11-15T10:28:25;10.57;;;5.07;;
7899;SDS011;3995;50.856;4.404;2022-11-15T10:30:56;21.53;;;2.90;;
7899;SDS011;3995;50.856;4.404;2022-11-15T10:33:26;7.10;;;2.60;;
7899;SDS011;3995;50.856;4.404;2022-11-15T10:36:14;9.60;;;3.00;;
7899;SDS011;3995;50.856;4.404;2022-11-15T10:38:51;4.53;;;1.80;;
7899;SDS011;3995;50.856;4.404;2022-11-15T10:41:28;6.20;;;2.87;;
7899;SDS011;3995;50.856;4.404;2022-11-15T10:50:04;15.33;;;3.60;;
7899;SDS011;3995;50.856;4.404;2022-11-15T10:52:34;6.03;;;2.43;;
7899;SDS011;3995;50.856;4.404;2022-11-15T10:55:05;14.13;;;3.97;;
7899;SDS011;3995;50.856;4.404;2022-11-15T10:57:48;17.83;;;3.90;;
7899;SDS011;3995;50.856;4.404;2022-11-15T11:00:27;11.10;;;2.20;;
7899;SDS011;3995;50.856;4.404;2022-11-15T11:02:57;3.20;;;1.53;;
7899;SDS011;3995;50.856;4.404;2022-11-15T11:05:28;7.63;;;2.57;;
7899;SDS011;3995;50.856;4.404;2022-11-15T11:07:59;11.53;;;2.33;;
7899;SDS011;3995;50.856;4.404;2022-11-15T11:10:30;8.40;;;2.20;;
7899;SDS011;3995;50.856;4.404;2022-11-15T11:13:11;17.30;;;2.77;;
7899;SDS011;3995;50.856;4.404;2022-11-15T11:15:40;13.53;;;2.40;;
7899;SDS011;3995;50.856;4.404;2022-11-15T11:18:11;7.47;;;2.60;;
7899;SDS011;3995;50.856;4.404;2022-11-15T11:20:49;3.70;;;1.77;;
7899;SDS011;3995;50.856;4.404;2022-11-15T11:23:26;10.53;;;3.10;;
7899;SDS011;3995;50.856;4.404;2022-11-15T11:26:09;8.93;;;2.80;;
7899;SDS011;3995;50.856;4.404;2022-11-15T11:28:53;4.07;;;2.27;;
7899;SDS011;3995;50.856;4.404;2022-11-15T11:31:28;4.10;;;1.80;;
7899;SDS011;3995;50.856;4.404;2022-11-15T11:34:02;6.70;;;2.13;;
7899;SDS011;3995;50.856;4.404;2022-11-15T11:36:40;8.43;;;2.60;;
7899;SDS011;3995;50.856;4.404;2022-11-15T11:39:21;5.30;;;2.30;;
7899;SDS011;3995;50.856;4.404;2022-11-15T11:41:56;8.90;;;2.90;;
7899;SDS011;3995;50.856;4.404;2022-11-15T11:44:33;8.53;;;2.00;;
7899;SDS011;3995;50.856;4.404;2022-11-15T11:47:09;8.80;;;2.73;;
7899;SDS011;3995;50.856;4.404;2022-11-15T11:49:41;15.53;;;2.60;;
7899;SDS011;3995;50.856;4.404;2022-11-15T11:52:15;10.13;;;2.60;;
7899;SDS011;3995;50.856;4.404;2022-11-15T11:54:53;13.07;;;4.60;;
7899;SDS011;3995;50.856;4.404;2022-11-15T11:57:28;15.30;;;2.77;;
7899;SDS011;3995;50.856;4.404;2022-11-15T12:00:02;8.23;;;3.70;;
7899;SDS011;3995;50.856;4.404;2022-11-15T12:02:32;8.93;;;2.77;;
7899;SDS011;3995;50.856;4.404;2022-11-15T12:05:08;9.80;;;2.47;;
7899;SDS011;3995;50.856;4.404;2022-11-15T12:07:41;12.37;;;2.47;;
7899;SDS011;3995;50.856;4.404;2022-11-15T12:10:14;16.10;;;2.87;;
7899;SDS011;3995;50.856;4.404;2022-11-15T12:12:50;6.37;;;1.97;;
7899;SDS011;3995;50.856;4.404;2022-11-15T12:15:24;7.63;;;2.23;;
7899;SDS011;3995;50.856;4.404;2022-11-15T12:17:54;23.47;;;11.77;;
7899;SDS011;3995;50.856;4.404;2022-11-15T12:20:22;12.13;;;6.00;;
7899;SDS011;3995;50.856;4.404;2022-11-15T12:22:55;7.00;;;2.70;;
7899;SDS011;3995;50.856;4.404;2022-11-15T12:25:29;7.00;;;3.40;;
7899;SDS011;3995;50.856;4.404;2022-11-15T12:28:06;9.67;;;2.03;;
7899;SDS011;3995;50.856;4.404;2022-11-15T12:30:43;18.33;;;10.70;;
7899;SDS011;3995;50.856;4.404;2022-11-15T12:33:28;8.63;;;2.60;;
7899;SDS011;3995;50.856;4.404;2022-11-15T12:35:58;18.10;;;2.90;;
7899;SDS011;3995;50.856;4.404;2022-11-15T12:41:23;10.53;;;1.90;;
7899;SDS011;3995;50.856;4.404;2022-11-15T12:43:51;4.87;;;1.80;;
7899;SDS011;3995;50.856;4.404;2022-11-15T12:46:20;8.63;;;1.93;;
7899;SDS011;3995;50.856;4.404;2022-11-15T12:48:51;8.37;;;1.87;;
7899;SDS011;3995;50.856;4.404;2022-11-15T12:57:31;6.40;;;1.97;;
7899;SDS011;3995;50.856;4.404;2022-11-15T13:00:00;10.53;;;1.97;;
7899;SDS011;3995;50.856;4.404;2022-11-15T13:02:32;4.67;;;2.00;;
7899;SDS011;3995;50.856;4.404;2022-11-15T13:17:10;11.40;;;3.13;;
7899;SDS011;3995;50.856;4.404;2022-11-15T13:20:12;10.80;;;2.30;;
7899;SDS011;3995;50.856;4.404;2022-11-15T13:22:49;8.57;;;2.70;;
7899;SDS011;3995;50.856;4.404;2022-11-15T13:25:22;5.93;;;2.13;;
7899;SDS011;3995;50.856;4.404;2022-11-15T13:28:11;6.63;;;1.80;;
7899;SDS011;3995;50.856;4.404;2022-11-15T13:30:50;4.40;;;1.80;;
7899;SDS011;3995;50.856;4.404;2022-11-15T13:33:20;9.50;;;2.20;;
7899;SDS011;3995;50.856;4.404;2022-11-15T13:35:50;4.53;;;1.70;;
7899;SDS011;3995;50.856;4.404;2022-11-15T13:38:25;7.03;;;2.67;;
7899;SDS011;3995;50.856;4.404;2022-11-15T13:40:54;9.70;;;3.90;;
7899;SDS011;3995;50.856;4.404;2022-11-15T13:43:27;18.37;;;2.40;;
7899;SDS011;3995;50.856;4.404;2022-11-15T13:46:04;7.30;;;2.67;;
7899;SDS011;3995;50.856;4.404;2022-11-15T13:48:37;6.77;;;2.67;;
7899;SDS011;3995;50.856;4.404;2022-11-15T13:51:05;8.57;;;2.20;;
7899;SDS011;3995;50.856;4.404;2022-11-15T13:53:36;14.97;;;3.47;;
7899;SDS011;3995;50.856;4.404;2022-11-15T13:56:06;10.80;;;4.17;;
7899;SDS011;3995;50.856;4.404;2022-11-15T13:58:37;4.83;;;3.20;;
7899;SDS011;3995;50.856;4.404;2022-11-15T14:01:05;4.03;;;1.80;;
7899;SDS011;3995;50.856;4.404;2022-11-15T14:03:33;9.83;;;3.10;;
7899;SDS011;3995;50.856;4.404;2022-11-15T14:06:07;5.53;;;1.83;;
7899;SDS011;3995;50.856;4.404;2022-11-15T14:08:37;12.33;;;1.90;;
7899;SDS011;3995;50.856;4.404;2022-11-15T14:11:06;7.73;;;2.27;;
7899;SDS011;3995;50.856;4.404;2022-11-15T14:13:38;2.97;;;1.83;;
7899;SDS011;3995;50.856;4.404;2022-11-15T14:16:13;8.07;;;2.00;;
7899;SDS011;3995;50.856;4.404;2022-11-15T14:18:43;4.70;;;1.97;;
7899;SDS011;3995;50.856;4.404;2022-11-15T14:21:12;5.93;;;3.13;;
7899;SDS011;3995;50.856;4.404;2022-11-15T14:23:39;6.30;;;3.57;;
7899;SDS011;3995;50.856;4.404;2022-11-15T14:26:11;5.63;;;2.00;;
7899;SDS011;3995;50.856;4.404;2022-11-15T14:28:53;7.03;;;1.77;;
7899;SDS011;3995;50.856;4.404;2022-11-15T14:31:21;5.50;;;2.70;;
7899;SDS011;3995;50.856;4.404;2022-11-15T14:33:48;4.67;;;2.60;;
7899;SDS011;3995;50.856;4.404;2022-11-15T14:36:16;6.70;;;2.30;;
7899;SDS011;3995;50.856;4.404;2022-11-15T14:38:44;8.60;;;3.10;;
7899;SDS011;3995;50.856;4.404;2022-11-15T14:41:17;11.90;;;2.43;;
7899;SDS011;3995;50.856;4.404;2022-11-15T14:43:47;8.53;;;2.60;;
7899;SDS011;3995;50.856;4.404;2022-11-15T14:46:15;4.10;;;1.97;;
7899;SDS011;3995;50.856;4.404;2022-11-15T14:48:43;9.03;;;3.00;;
7899;SDS011;3995;50.856;4.404;2022-11-15T14:51:11;7.40;;;1.90;;
7899;SDS011;3995;50.856;4.404;2022-11-15T14:53:39;8.60;;;2.07;;
7899;SDS011;3995;50.856;4.404;2022-11-15T14:56:06;6.50;;;2.50;;
7899;SDS011;3995;50.856;4.404;2022-11-15T14:58:34;13.77;;;2.07;;
7899;SDS011;3995;50.856;4.404;2022-11-15T15:01:01;4.60;;;1.93;;
7899;SDS011;3995;50.856;4.404;2022-11-15T15:03:30;8.67;;;1.67;;
7899;SDS011;3995;50.856;4.404;2022-11-15T15:05:58;3.17;;;1.87;;
7899;SDS011;3995;50.856;4.404;2022-11-15T15:08:27;4.80;;;1.97;;
7899;SDS011;3995;50.856;4.404;2022-11-15T15:10:54;4.83;;;1.80;;
7899;SDS011;3995;50.856;4.404;2022-11-15T15:13:22;6.93;;;1.83;;
7899;SDS011;3995;50.856;4.404;2022-11-15T15:15:55;8.33;;;2.03;;
7899;SDS011;3995;50.856;4.404;2022-11-15T15:18:23;4.70;;;2.07;;
7899;SDS011;3995;50.856;4.404;2022-11-15T15:20:53;4.70;;;2.40;;
7899;SDS011;3995;50.856;4.404;2022-11-15T15:23:22;8.53;;;1.73;;
7899;SDS011;3995;50.856;4.404;2022-11-15T15:25:51;5.40;;;2.20;;
7899;SDS011;3995;50.856;4.404;2022-11-15T15:28:18;8.20;;;1.63;;
7899;SDS011;3995;50.856;4.404;2022-11-15T15:30:46;6.37;;;2.17;;
7899;SDS011;3995;50.856;4.404;2022-11-15T15:33:14;3.03;;;1.47;;
7899;SDS011;3995;50.856;4.404;2022-11-15T15:35:41;4.07;;;2.20;;
7899;SDS011;3995;50.856;4.404;2022-11-15T15:38:10;9.07;;;1.90;;
7899;SDS011;3995;50.856;4.404;2022-11-15T15:40:38;6.37;;;2.27;;
7899;SDS011;3995;50.856;4.404;2022-11-15T15:43:06;5.77;;;1.70;;
7899;SDS011;3995;50.856;4.404;2022-11-15T15:45:35;5.73;;;1.70;;
7899;SDS011;3995;50.856;4.404;2022-11-15T15:48:04;3.00;;;1.97;;
7899;SDS011;3995;50.856;4.404;2022-11-15T15:50:32;2.73;;;2.00;;
7899;SDS011;3995;50.856;4.404;2022-11-15T15:53:01;4.13;;;2.57;;
7899;SDS011;3995;50.856;4.404;2022-11-15T15:55:31;4.67;;;1.60;;
7899;SDS011;3995;50.856;4.404;2022-11-15T15:57:59;3.77;;;1.80;;